createdAt,value
2024-02-29T00:00:38.347Z,20.67
2024-02-29T00:03:41.799Z,20.02
2024-02-29T00:06:45.828Z,21.48
2024-02-29T00:09:49.287Z,19.38
2024-02-29T00:12:52.756Z,21.67
2024-02-29T00:15:56.279Z,20.60
2024-02-29T00:18:59.789Z,22.75
2024-02-29T00:22:03.318Z,22.20
2024-02-29T00:25:07.305Z,27.17
2024-02-29T00:28:10.895Z,26.50
2024-02-29T00:31:14.434Z,35.60
2024-02-29T00:34:18.002Z,31.23
2024-02-29T00:37:21.561Z,29.05
2024-02-29T00:40:25.183Z,26.42
2024-02-29T00:43:28.601Z,24.30
2024-02-29T00:46:32.032Z,22.73
2024-02-29T00:49:36.297Z,23.13
2024-02-29T00:52:39.976Z,22.95
2024-02-29T00:55:44.317Z,24.58
2024-02-29T00:58:47.713Z,22.98
2024-02-29T01:01:51.264Z,23.60
2024-02-29T01:04:54.803Z,21.52
2024-02-29T01:07:58.245Z,22.48
2024-02-29T01:11:01.739Z,21.58
2024-02-29T01:14:05.795Z,23.60
2024-02-29T01:17:09.161Z,26.73
2024-02-29T01:20:12.768Z,31.25
2024-02-29T01:23:16.272Z,30.90
2024-02-29T01:26:19.666Z,31.15
2024-02-29T01:29:23.945Z,29.63
2024-02-29T01:32:29.882Z,30.07
2024-02-29T01:35:34.474Z,26.80
2024-02-29T01:38:37.850Z,28.15
2024-02-29T01:41:41.756Z,28.52
2024-02-29T01:44:58.033Z,27.52
2024-02-29T01:48:01.435Z,30.60
2024-02-29T01:51:06.641Z,30.83
2024-02-29T01:54:10.595Z,33.60
2024-02-29T01:57:14.601Z,31.52
2024-02-29T02:00:18.342Z,31.98
2024-02-29T02:03:22.392Z,30.00
2024-02-29T02:06:26.007Z,26.15
2024-02-29T02:09:30.291Z,26.02
2024-02-29T02:12:33.893Z,24.42
2024-02-29T02:15:37.374Z,25.50
2024-02-29T02:18:40.945Z,24.43
2024-02-29T02:21:44.713Z,26.00
2024-02-29T02:24:48.196Z,25.75
2024-02-29T02:27:51.689Z,24.30
2024-02-29T02:30:55.436Z,23.23
2024-02-29T02:33:59.387Z,20.17
2024-02-29T02:37:02.879Z,23.33
2024-02-29T02:40:07.556Z,21.10
2024-02-29T02:43:11.089Z,22.23
2024-02-29T02:46:14.805Z,19.83
2024-02-29T02:49:18.194Z,21.07
2024-02-29T02:52:21.908Z,22.10
2024-02-29T02:55:25.526Z,24.33
2024-02-29T02:58:28.888Z,26.50
2024-02-29T03:01:32.255Z,26.85
2024-02-29T03:04:35.640Z,22.43
2024-02-29T03:07:39.965Z,23.92
2024-02-29T03:10:43.548Z,22.65
2024-02-29T03:13:47.117Z,21.73
2024-02-29T03:16:50.467Z,21.73
2024-02-29T03:20:14.519Z,20.60
2024-02-29T03:23:19.294Z,20.67
2024-02-29T03:26:22.718Z,19.20
2024-02-29T03:29:26.191Z,19.25
2024-02-29T03:32:29.772Z,17.95
2024-02-29T03:35:33.131Z,18.50
2024-02-29T03:38:41.397Z,19.35
2024-02-29T03:41:44.752Z,19.77
2024-02-29T03:44:48.158Z,19.40
2024-02-29T03:47:51.544Z,19.23
2024-02-29T03:50:54.951Z,19.50
2024-02-29T03:53:58.475Z,19.45
2024-02-29T03:57:02.258Z,21.77
2024-02-29T04:00:12.280Z,21.02
2024-02-29T04:03:16.190Z,19.45
2024-02-29T04:06:19.789Z,20.67
2024-02-29T04:09:23.196Z,20.52
2024-02-29T04:12:26.877Z,19.83
2024-02-29T04:15:30.254Z,18.65
2024-02-29T04:18:33.704Z,20.10
2024-02-29T04:21:37.200Z,19.30
2024-02-29T04:24:40.754Z,19.65
2024-02-29T04:27:44.406Z,21.70
2024-02-29T04:30:47.849Z,20.02
2024-02-29T04:33:52.275Z,23.10
2024-02-29T04:36:55.782Z,21.53
2024-02-29T04:39:59.195Z,20.67
2024-02-29T04:43:03.099Z,20.38
2024-02-29T04:46:06.699Z,20.27
2024-02-29T04:49:10.358Z,21.10
2024-02-29T04:52:13.881Z,20.07
2024-02-29T04:55:17.382Z,21.20
2024-02-29T04:58:20.905Z,21.05
2024-02-29T05:01:24.529Z,19.67
2024-02-29T05:04:28.045Z,20.92
2024-02-29T05:07:32.191Z,19.70
2024-02-29T05:10:35.545Z,20.23
2024-02-29T05:13:39.006Z,21.25
2024-02-29T05:16:42.509Z,22.10
2024-02-29T05:19:46.185Z,20.65
2024-02-29T05:22:54.812Z,21.10
2024-02-29T05:25:58.554Z,20.35
2024-02-29T05:29:01.944Z,26.48
2024-02-29T05:32:05.627Z,26.73
2024-02-29T05:35:09.503Z,30.40
2024-02-29T05:38:12.894Z,28.50
2024-02-29T05:41:16.293Z,28.08
2024-02-29T05:44:20.580Z,33.22
2024-02-29T05:47:23.962Z,41.72
2024-02-29T05:50:29.912Z,30.48
2024-02-29T05:53:34.692Z,29.67
2024-02-29T05:56:38.358Z,34.22
2024-02-29T05:59:41.949Z,33.17
2024-02-29T06:02:46.251Z,30.42
2024-02-29T06:05:50.471Z,30.02
2024-02-29T06:08:53.851Z,28.83
2024-02-29T06:11:57.196Z,35.38
2024-02-29T06:15:00.601Z,44.55
2024-02-29T06:18:04.147Z,46.35
2024-02-29T06:21:07.649Z,45.05
2024-02-29T06:24:11.057Z,35.03
2024-02-29T06:27:18.014Z,32.80
2024-02-29T06:30:21.699Z,29.98
2024-02-29T06:33:26.113Z,29.00
2024-02-29T06:36:29.580Z,31.00
2024-02-29T06:39:32.977Z,30.80
2024-02-29T06:42:36.574Z,32.08
2024-02-29T06:45:50.747Z,54.92
2024-02-29T06:48:54.192Z,59.03
2024-02-29T06:51:58.014Z,56.90
2024-02-29T06:55:01.560Z,36.93
2024-02-29T06:58:06.710Z,29.60
2024-02-29T07:01:11.001Z,26.73
2024-02-29T07:04:14.725Z,26.98
2024-02-29T07:07:19.525Z,27.65
2024-02-29T07:10:24.330Z,25.47
2024-02-29T07:13:28.189Z,26.27
2024-02-29T07:16:34.093Z,27.77
2024-02-29T07:19:57.969Z,25.58
2024-02-29T07:23:04.096Z,25.67
2024-02-29T07:26:09.085Z,22.83
2024-02-29T07:29:12.921Z,20.42
2024-02-29T07:32:16.372Z,18.80
2024-02-29T07:35:19.792Z,18.83
2024-02-29T07:38:23.280Z,18.48
2024-02-29T07:41:27.560Z,18.03
2024-02-29T07:44:31.005Z,17.65
2024-02-29T07:47:35.017Z,20.30
2024-02-29T07:50:38.868Z,18.30
2024-02-29T07:53:42.407Z,18.92
2024-02-29T07:56:47.227Z,18.57
2024-02-29T07:59:50.746Z,18.33
2024-02-29T08:02:54.171Z,18.58
2024-02-29T08:05:58.201Z,19.50
2024-02-29T08:09:01.565Z,17.98
2024-02-29T08:12:05.360Z,17.97
2024-02-29T08:15:09.360Z,17.50
2024-02-29T08:18:15.886Z,19.77
2024-02-29T08:21:19.278Z,19.40
2024-02-29T08:24:22.726Z,19.15
2024-02-29T08:27:27.210Z,18.43
2024-02-29T08:30:30.672Z,18.15
2024-02-29T08:33:34.149Z,18.70
2024-02-29T08:36:37.634Z,18.05
2024-02-29T08:39:42.514Z,18.52
2024-02-29T08:42:46.361Z,18.97
2024-02-29T08:45:51.292Z,18.25
2024-02-29T08:48:54.909Z,15.45
2024-02-29T08:51:58.646Z,18.63
2024-02-29T08:55:02.776Z,18.48
2024-02-29T08:58:06.687Z,17.50
2024-02-29T09:01:11.014Z,16.88
2024-02-29T09:04:14.929Z,17.00
2024-02-29T09:07:18.502Z,16.05
2024-02-29T09:10:28.876Z,15.98
2024-02-29T09:13:35.825Z,16.17
2024-02-29T09:16:39.785Z,16.77
2024-02-29T09:19:43.454Z,17.87
2024-02-29T09:22:46.883Z,16.70
2024-02-29T09:25:50.983Z,17.23
2024-02-29T09:28:54.517Z,18.45
2024-02-29T09:31:57.999Z,15.40
2024-02-29T09:35:01.467Z,16.27
2024-02-29T09:38:06.071Z,14.35
2024-02-29T09:41:31.793Z,16.38
2024-02-29T09:44:38.653Z,18.40
2024-02-29T09:47:42.496Z,16.63
2024-02-29T09:50:45.995Z,17.03
2024-02-29T09:53:53.338Z,16.15
2024-02-29T09:56:56.999Z,16.70
2024-02-29T10:00:02.456Z,16.65
2024-02-29T10:03:13.083Z,16.43
2024-02-29T10:06:16.848Z,15.70
2024-02-29T10:09:22.296Z,15.75
2024-02-29T10:12:25.884Z,16.25
2024-02-29T10:15:29.824Z,15.18
2024-02-29T10:18:40.037Z,17.37
2024-02-29T10:21:44.908Z,16.40
2024-02-29T10:24:52.145Z,17.00
2024-02-29T10:28:04.286Z,17.05
2024-02-29T10:31:08.509Z,16.95
2024-02-29T10:34:15.069Z,17.13
2024-02-29T10:37:18.732Z,16.93
2024-02-29T10:40:25.905Z,17.55
2024-02-29T10:43:34.280Z,16.23
2024-02-29T10:46:42.894Z,16.30
2024-02-29T10:49:48.410Z,17.53
2024-02-29T10:53:06.759Z,16.70
2024-02-29T10:56:28.793Z,15.30
2024-02-29T10:59:33.136Z,16.08
2024-02-29T11:02:59.693Z,14.02
2024-02-29T11:06:04.463Z,16.27
2024-02-29T11:09:11.697Z,14.70
2024-02-29T11:12:19.258Z,14.48
2024-02-29T11:15:27.229Z,14.93
2024-02-29T11:18:31.921Z,16.80
2024-02-29T11:21:35.974Z,15.70
2024-02-29T11:24:41.999Z,16.60
2024-02-29T11:27:51.949Z,16.23
2024-02-29T11:30:55.749Z,16.15
2024-02-29T11:34:01.846Z,15.13
2024-02-29T11:37:08.504Z,16.30
2024-02-29T11:40:21.457Z,15.50
2024-02-29T11:43:26.287Z,15.85
2024-02-29T11:46:30.126Z,15.38
2024-02-29T11:49:35.182Z,15.38
2024-02-29T11:52:38.688Z,15.10
2024-02-29T11:55:43.111Z,15.00
2024-02-29T11:58:50.179Z,14.70
2024-02-29T12:01:54.764Z,15.07
2024-02-29T12:04:59.555Z,15.20
2024-02-29T12:08:04.225Z,18.00
2024-02-29T12:11:08.776Z,14.13
2024-02-29T12:14:13.168Z,14.00
2024-02-29T12:17:17.987Z,15.38
2024-02-29T12:20:23.332Z,16.45
2024-02-29T12:23:34.917Z,16.73
2024-02-29T12:26:40.274Z,16.07
2024-02-29T12:29:43.925Z,15.68
2024-02-29T12:32:50.394Z,17.17
2024-02-29T12:35:53.885Z,14.48
2024-02-29T12:38:57.308Z,14.93
2024-02-29T12:42:00.712Z,17.10
2024-02-29T12:45:04.956Z,14.43
2024-02-29T12:48:08.627Z,15.02
2024-02-29T12:51:12.516Z,14.45
2024-02-29T12:54:16.211Z,14.43
2024-02-29T12:57:20.029Z,13.97
2024-02-29T13:00:25.450Z,14.60
2024-02-29T13:03:29.328Z,15.38
2024-02-29T13:06:32.903Z,14.70
2024-02-29T13:09:36.376Z,14.67
2024-02-29T13:12:45.446Z,13.37
2024-02-29T13:15:54.289Z,14.35
2024-02-29T13:18:59.584Z,15.18
2024-02-29T13:22:03.697Z,14.32
2024-02-29T13:25:08.297Z,14.13
2024-02-29T13:28:12.896Z,14.27
2024-02-29T13:31:16.632Z,13.48
2024-02-29T13:34:20.295Z,13.75
2024-02-29T13:37:24.565Z,13.15
2024-02-29T13:40:28.285Z,13.83
2024-02-29T13:43:32.023Z,13.93
2024-02-29T13:46:35.666Z,12.50
2024-02-29T13:49:39.157Z,13.25
2024-02-29T13:52:45.695Z,13.50
2024-02-29T13:55:49.180Z,14.50
2024-02-29T13:58:54.031Z,12.87
2024-02-29T14:01:57.642Z,12.68
2024-02-29T14:05:01.430Z,12.43
2024-02-29T14:08:05.310Z,21.50
2024-02-29T14:11:08.838Z,41.57
2024-02-29T14:14:13.156Z,18.70
2024-02-29T14:17:16.651Z,13.55
2024-02-29T14:20:21.970Z,13.15
2024-02-29T14:23:25.747Z,14.02
2024-02-29T14:26:29.346Z,13.60
2024-02-29T14:29:32.837Z,13.97
2024-02-29T14:32:37.626Z,15.63
2024-02-29T14:35:41.493Z,17.95
2024-02-29T14:38:45.197Z,16.55
2024-02-29T14:41:49.267Z,10.90
2024-02-29T14:44:53.065Z,11.37
2024-02-29T14:47:56.986Z,11.02
2024-02-29T14:51:01.889Z,11.55
2024-02-29T14:54:05.776Z,13.00
2024-02-29T14:57:09.406Z,13.33
2024-02-29T15:00:13.535Z,13.00
2024-02-29T15:03:18.342Z,12.88
2024-02-29T15:06:22.127Z,14.95
2024-02-29T15:09:25.745Z,11.95
2024-02-29T15:12:29.379Z,10.17
2024-02-29T15:15:32.992Z,11.43
2024-02-29T15:18:36.671Z,12.18
2024-02-29T15:21:41.172Z,11.05
2024-02-29T15:24:44.851Z,11.90
2024-02-29T15:27:54.889Z,16.57
2024-02-29T15:30:58.529Z,23.77
2024-02-29T15:34:02.334Z,18.05
2024-02-29T15:37:05.908Z,16.05
2024-02-29T15:40:09.861Z,14.15
2024-02-29T15:43:14.400Z,14.93
2024-02-29T15:46:19.073Z,14.03
2024-02-29T15:49:22.718Z,22.52
2024-02-29T15:52:26.678Z,26.08
2024-02-29T15:55:30.111Z,34.67
2024-02-29T15:58:33.939Z,42.60
2024-02-29T16:01:41.426Z,56.43
2024-02-29T16:04:45.300Z,28.80
2024-02-29T16:07:48.736Z,17.90
2024-02-29T16:10:52.330Z,17.25
2024-02-29T16:13:55.846Z,18.40
2024-02-29T16:16:59.262Z,18.37
2024-02-29T16:20:03.028Z,19.02
2024-02-29T16:23:06.450Z,17.45
2024-02-29T16:26:10.712Z,19.95
2024-02-29T16:29:14.286Z,22.70
2024-02-29T16:32:18.043Z,24.83
2024-02-29T16:35:23.816Z,21.63
2024-02-29T16:38:27.646Z,26.92
2024-02-29T16:41:51.692Z,34.17
2024-02-29T16:44:56.560Z,37.23
2024-02-29T16:48:00.709Z,49.80
2024-02-29T16:51:05.750Z,27.73
2024-02-29T16:54:09.339Z,28.73
2024-02-29T16:57:13.062Z,26.98
2024-02-29T17:00:19.280Z,29.10
2024-02-29T17:03:23.132Z,24.17
2024-02-29T17:06:27.497Z,26.10
2024-02-29T17:09:31.298Z,27.67
2024-02-29T17:12:34.747Z,18.92
2024-02-29T17:15:38.636Z,35.07
2024-02-29T17:18:43.040Z,33.27
2024-02-29T17:21:47.620Z,32.08
2024-02-29T17:24:51.147Z,22.95
2024-02-29T17:27:57.261Z,18.73
2024-02-29T17:31:01.239Z,17.53
2024-02-29T17:34:04.914Z,18.33
2024-02-29T17:37:09.387Z,17.05
2024-02-29T17:40:13.530Z,19.38
2024-02-29T17:43:18.557Z,22.20
2024-02-29T17:46:22.490Z,29.67
2024-02-29T17:49:26.253Z,22.13
2024-02-29T17:52:29.906Z,18.08
2024-02-29T17:55:33.767Z,21.45
2024-02-29T17:58:37.421Z,26.70
2024-02-29T18:01:41.265Z,24.90
2024-02-29T18:04:44.776Z,20.33
2024-02-29T18:07:55.530Z,20.58
2024-02-29T18:11:03.064Z,20.63
2024-02-29T18:14:06.495Z,21.73
2024-02-29T18:17:10.387Z,21.03
2024-02-29T18:20:18.409Z,21.27
2024-02-29T18:23:23.955Z,23.50
2024-02-29T18:26:27.554Z,24.98
2024-02-29T18:29:30.993Z,25.33
2024-02-29T18:32:34.769Z,25.10
2024-02-29T18:35:39.209Z,25.80
2024-02-29T18:38:42.917Z,22.58
2024-02-29T18:41:46.742Z,23.60
2024-02-29T18:44:50.511Z,22.85
2024-02-29T18:47:54.278Z,23.47
2024-02-29T18:50:58.055Z,23.53
2024-02-29T18:54:01.756Z,21.55
2024-02-29T18:57:05.380Z,36.85
2024-02-29T19:00:09.832Z,35.95
2024-02-29T19:03:13.985Z,17.87
2024-02-29T19:06:18.006Z,21.20
2024-02-29T19:09:22.714Z,15.88
2024-02-29T19:12:27.374Z,17.17
2024-02-29T19:15:30.946Z,17.17
2024-02-29T19:18:35.832Z,19.90
2024-02-29T19:21:39.879Z,20.97
2024-02-29T19:24:43.598Z,37.42
2024-02-29T19:27:47.782Z,24.83
2024-02-29T19:30:51.441Z,22.25
2024-02-29T19:33:55.042Z,28.77
2024-02-29T19:36:58.792Z,23.03
2024-02-29T19:40:02.554Z,22.48
2024-02-29T19:43:06.295Z,22.73
2024-02-29T19:46:09.728Z,22.08
2024-02-29T19:49:13.663Z,22.83
2024-02-29T19:52:17.834Z,30.77
2024-02-29T19:55:21.765Z,22.05
2024-02-29T19:58:25.529Z,22.25
2024-02-29T20:01:29.687Z,22.45
2024-02-29T20:04:33.459Z,24.77
2024-02-29T20:07:37.564Z,24.30
2024-02-29T20:10:42.269Z,23.85
2024-02-29T20:13:46.538Z,22.30
2024-02-29T20:16:50.044Z,21.30
2024-02-29T20:19:53.508Z,24.27
2024-02-29T20:23:00.293Z,21.67
2024-02-29T20:26:04.123Z,21.30
2024-02-29T20:29:07.895Z,21.90
2024-02-29T20:32:14.940Z,20.40
2024-02-29T20:35:18.753Z,20.60
2024-02-29T20:38:22.159Z,20.43
2024-02-29T20:41:25.671Z,19.95
2024-02-29T20:44:29.126Z,19.70
2024-02-29T20:47:33.316Z,19.77
2024-02-29T20:50:36.764Z,20.47
2024-02-29T20:53:40.355Z,21.27
2024-02-29T20:57:03.809Z,21.67
2024-02-29T21:00:10.757Z,21.15
2024-02-29T21:03:14.552Z,21.90
2024-02-29T21:06:19.636Z,22.40
2024-02-29T21:09:23.427Z,20.77
2024-02-29T21:12:27.033Z,21.02
2024-02-29T21:15:32.753Z,19.70
2024-02-29T21:18:36.366Z,19.65
2024-02-29T21:21:41.725Z,19.13
2024-02-29T21:24:46.486Z,18.83
2024-02-29T21:27:49.923Z,19.17
2024-02-29T21:30:53.443Z,19.33
2024-02-29T21:33:56.933Z,17.92
2024-02-29T21:37:00.621Z,17.40
2024-02-29T21:40:04.978Z,17.90
2024-02-29T21:43:08.619Z,16.55
2024-02-29T21:46:13.416Z,17.08
2024-02-29T21:49:17.729Z,16.58
2024-02-29T21:52:21.160Z,15.63
2024-02-29T21:55:24.625Z,15.40
2024-02-29T21:58:29.935Z,14.90
2024-02-29T22:01:33.390Z,15.65
2024-02-29T22:04:37.080Z,15.10
2024-02-29T22:07:41.237Z,15.27
2024-02-29T22:10:46.639Z,14.83
2024-02-29T22:13:50.985Z,16.70
2024-02-29T22:16:55.580Z,14.90
2024-02-29T22:19:58.960Z,15.63
2024-02-29T22:23:02.587Z,15.60
2024-02-29T22:26:06.047Z,15.23
2024-02-29T22:29:10.224Z,16.00
2024-02-29T22:32:13.672Z,15.57
2024-02-29T22:35:19.136Z,16.13
2024-02-29T22:38:22.983Z,15.03
2024-02-29T22:41:26.358Z,15.67
2024-02-29T22:44:29.801Z,15.15
2024-02-29T22:47:33.389Z,15.80
2024-02-29T22:50:36.817Z,15.25
2024-02-29T22:53:40.286Z,15.17
2024-02-29T22:56:43.986Z,16.23
2024-02-29T22:59:47.670Z,14.55
2024-02-29T23:02:51.886Z,14.48
2024-02-29T23:05:56.273Z,14.23
2024-02-29T23:08:59.654Z,14.60
2024-02-29T23:12:03.444Z,14.70
2024-02-29T23:15:08.126Z,13.68
2024-02-29T23:18:11.619Z,14.15
2024-02-29T23:21:15.175Z,14.40
2024-02-29T23:24:18.517Z,14.23
2024-02-29T23:27:21.897Z,13.77
2024-02-29T23:30:25.374Z,14.05
2024-02-29T23:33:28.760Z,17.13
2024-02-29T23:36:32.227Z,13.93
2024-02-29T23:39:36.114Z,15.83
2024-02-29T23:42:39.565Z,14.03
2024-02-29T23:45:43.041Z,13.98
2024-02-29T23:48:46.930Z,16.70
2024-02-29T23:51:50.392Z,15.88
2024-02-29T23:54:53.992Z,16.53
2024-02-29T23:57:57.397Z,15.37
